Time;durP1;ratioP1;P1;durP2;ratioP2;P2;SDS_P1;SDS_P2;PMS_P1;PMS_P2;Temp;Humidity;BMP_temperature;BMP_pressure;BME280_temperature;BME280_humidity;BME280_pressure;Samples;Min_cycle;Max_cycle;Signal;HPM_P1;HPM_P2
2022/12/17 13:05:59;;;;;;;37.78;21.90;;;;;;;3.07;48.92;101472.22;10467173;28;20045;-78
2022/12/17 13:11:11;;;;;;;29.92;20.00;;;;;;;2.99;50.12;101469.84;10463519;28;20044;-78
2022/12/17 13:16:26;;;;;;;35.90;21.35;;;;;;;3.19;50.33;101471.84;10461241;28;20056;-79
2022/12/17 13:21:30;;;;;;;32.72;21.58;;;;;;;3.22;51.03;101474.38;10460850;28;21790;-77
2022/12/17 13:26:44;;;;;;;39.40;22.40;;;;;;;3.44;50.54;101477.19;10464147;28;20131;-79
2022/12/17 13:32:02;;;;;;;34.70;21.63;;;;;;;3.77;49.85;101481.41;10461644;28;20424;-78
2022/12/17 13:37:10;;;;;;;30.00;20.55;;;;;;;3.86;49.81;101479.25;10464898;28;20070;-79
2022/12/17 13:42:26;;;;;;;33.15;20.58;;;;;;;3.74;50.52;101485.03;10437650;28;20060;-77
2022/12/17 13:47:33;;;;;;;32.42;19.70;;;;;;;3.56;50.13;101483.00;10456524;28;20593;-79
2022/12/17 13:52:36;;;;;;;35.65;21.27;;;;;;;3.38;50.05;101474.75;10469187;28;20098;-79
2022/12/17 13:57:45;;;;;;;49.08;25.75;;;;;;;3.13;50.79;101482.66;10465055;28;20056;-79
2022/12/17 14:02:50;;;;;;;43.65;23.88;;;;;;;3.00;50.66;101491.94;10459407;28;20044;-79
2022/12/17 14:07:58;;;;;;;33.50;20.83;;;;;;;2.73;51.26;101499.84;10466800;28;20135;-78
2022/12/17 14:13:06;;;;;;;32.10;19.77;;;;;;;2.61;51.48;101501.09;10460184;28;20055;-77
2022/12/17 14:18:14;;;;;;;31.63;20.35;;;;;;;2.43;52.03;101498.94;10458632;28;20059;-77
2022/12/17 14:23:26;;;;;;;33.92;21.52;;;;;;;2.30;52.30;101501.06;10461313;28;20045;-78
2022/12/17 14:28:33;;;;;;;29.92;20.20;;;;;;;2.18;53.08;101519.97;10464060;28;20041;-77
2022/12/17 14:33:38;;;;;;;31.38;20.58;;;;;;;1.97;53.52;101518.78;10462394;28;20047;-76
2022/12/17 14:38:52;;;;;;;35.35;20.67;;;;;;;1.01;55.36;101530.03;10459790;28;20040;-77
2022/12/17 14:44:01;;;;;;;37.30;21.88;;;;;;;0.68;56.99;101519.28;10470072;28;20048;-76
2022/12/17 14:49:17;;;;;;;38.78;21.67;;;;;;;-0.04;57.89;101520.78;10483264;28;20068;-76
2022/12/17 14:54:29;;;;;;;34.33;22.38;;;;;;;-0.66;59.49;101528.00;10466112;28;20060;-77
2022/12/17 14:59:34;;;;;;;38.33;23.10;;;;;;;-0.94;60.96;101525.81;10457384;28;20194;-76
2022/12/17 15:04:39;;;;;;;44.92;23.67;;;;;;;-1.06;61.47;101521.59;10456045;28;20174;-78
2022/12/17 15:09:43;;;;;;;45.55;23.65;;;;;;;-1.25;62.00;101523.63;10462565;28;20074;-78
2022/12/17 15:14:46;;;;;;;49.78;27.52;;;;;;;-1.36;62.31;101525.53;10462318;28;20057;-78
2022/12/17 15:19:50;;;;;;;42.22;24.23;;;;;;;-1.48;62.44;101515.13;10462556;28;20063;-78
2022/12/17 15:24:58;;;;;;;47.80;25.92;;;;;;;-1.63;62.49;101532.03;10465867;28;20056;-79
2022/12/17 15:30:00;;;;;;;45.47;24.73;;;;;;;-1.73;63.16;101530.38;10467248;28;20139;-78
2022/12/17 15:35:06;;;;;;;43.85;24.02;;;;;;;-1.83;63.19;101537.53;10470119;28;20051;-76
2022/12/17 15:40:10;;;;;;;44.05;24.58;;;;;;;-1.97;63.54;101535.06;10467902;28;20055;-78
2022/12/17 15:45:13;;;;;;;45.67;22.48;;;;;;;-2.14;64.11;101529.97;10469371;28;20063;-78
2022/12/17 15:50:18;;;;;;;41.65;21.20;;;;;;;-2.27;64.42;101544.13;10468240;28;20609;-78
2022/12/17 15:55:20;;;;;;;43.28;22.45;;;;;;;-2.34;64.80;101535.41;10470363;28;20175;-78
2022/12/17 16:00:24;;;;;;;36.08;22.02;;;;;;;-2.44;64.63;101546.03;10480751;28;20133;-78
2022/12/17 16:05:29;;;;;;;49.53;23.52;;;;;;;-2.60;64.82;101540.91;10471322;28;20147;-76
2022/12/17 16:10:32;;;;;;;46.63;21.85;;;;;;;-2.73;65.49;101541.88;10469057;28;20158;-78
2022/12/17 16:15:35;;;;;;;44.92;21.25;;;;;;;-2.84;65.49;101548.97;10469149;28;20048;-78
2022/12/17 16:20:39;;;;;;;43.25;21.52;;;;;;;-2.87;65.67;101549.88;10467066;28;20049;-77
2022/12/17 16:25:42;;;;;;;77.45;33.67;;;;;;;-2.77;65.81;101556.81;10453459;28;20458;-78
2022/12/17 16:30:45;;;;;;;45.50;24.02;;;;;;;-2.73;65.44;101562.94;10476401;28;21820;-79
2022/12/17 16:35:52;;;;;;;50.15;23.17;;;;;;;-2.80;65.22;101570.00;10472170;28;20131;-78
2022/12/17 16:40:56;;;;;;;47.45;23.55;;;;;;;-2.98;65.24;101564.84;10453922;28;20135;-78
2022/12/17 16:45:59;;;;;;;48.05;22.65;;;;;;;-3.06;65.12;101580.66;10454483;28;20158;-76
2022/12/17 16:51:15;;;;;;;51.80;23.40;;;;;;;-3.09;65.40;101585.09;10467392;28;21794;-77
2022/12/17 16:56:19;;;;;;;62.25;30.27;;;;;;;-3.13;65.00;101581.56;10461070;28;20127;-77
2022/12/17 17:01:25;;;;;;;54.15;23.92;;;;;;;-3.24;65.15;101591.28;10439680;28;20056;-77
2022/12/17 17:06:29;;;;;;;50.90;24.15;;;;;;;-3.40;65.41;101587.84;10460123;28;20045;-77
2022/12/17 17:11:35;;;;;;;51.10;24.52;;;;;;;-3.52;65.69;101601.88;10462657;28;20049;-73
2022/12/17 17:16:38;;;;;;;50.17;23.33;;;;;;;-3.62;65.82;101594.91;10451597;28;20055;-75
2022/12/17 17:21:49;;;;;;;43.55;20.27;;;;;;;-3.79;65.82;101599.34;10488261;28;20112;-78
2022/12/17 17:26:54;;;;;;;45.10;19.45;;;;;;;-3.87;66.41;101615.09;10502168;28;20099;-77
2022/12/17 17:31:57;;;;;;;42.67;21.58;;;;;;;-3.89;66.65;101607.25;10501687;28;20050;-78
2022/12/17 17:37:14;;;;;;;38.25;17.88;;;;;;;-3.89;66.58;101611.63;10513841;28;20052;-76
2022/12/17 17:42:17;;;;;;;48.53;19.25;;;;;;;-3.98;66.54;101617.75;10505192;28;20106;-77
2022/12/17 17:47:20;;;;;;;47.50;21.35;;;;;;;-4.02;66.72;101612.53;10509072;28;20036;-77
2022/12/17 17:52:24;;;;;;;46.42;21.30;;;;;;;-4.08;66.88;101627.41;10510584;28;20032;-75
2022/12/17 17:57:27;;;;;;;41.10;20.15;;;;;;;-4.01;66.75;101628.25;10513362;28;20141;-76
2022/12/17 18:02:30;;;;;;;38.25;19.00;;;;;;;-4.08;66.85;101637.91;10512897;28;20042;-77
2022/12/17 18:07:34;;;;;;;44.17;21.38;;;;;;;-4.08;66.89;101644.91;10503672;28;20066;-75
2022/12/17 18:17:58;;;;;;;47.00;21.27;;;;;;;-4.19;66.89;101660.66;10501523;28;20087;-78
2022/12/17 18:23:03;;;;;;;46.90;20.67;;;;;;;-4.20;66.89;101652.75;10500256;28;20040;-76
2022/12/17 18:28:05;;;;;;;44.35;20.30;;;;;;;-4.30;67.03;101650.16;10505756;28;20045;-76
2022/12/17 18:33:08;;;;;;;59.75;26.17;;;;;;;-4.40;66.89;101643.13;10504463;28;20100;-78
2022/12/17 18:38:13;;;;;;;58.92;27.30;;;;;;;-4.45;67.28;101634.38;10506017;28;20060;-78
2022/12/17 18:43:25;;;;;;;49.63;27.08;;;;;;;-4.49;67.43;101652.75;10506851;28;20047;-77
2022/12/17 18:48:28;;;;;;;62.40;28.05;;;;;;;-4.51;67.42;101655.38;10485962;28;20060;-76
2022/12/17 18:53:32;;;;;;;53.67;25.85;;;;;;;-4.52;67.37;101653.63;10507018;28;20044;-76
2022/12/17 18:58:35;;;;;;;50.75;22.95;;;;;;;-4.51;67.78;101652.75;10511312;28;20044;-76
2022/12/17 19:03:38;;;;;;;55.85;22.60;;;;;;;-4.59;67.47;101659.72;10509726;28;20040;-76
2022/12/17 19:08:43;;;;;;;50.22;22.77;;;;;;;-4.67;67.53;101669.31;10481253;28;20071;-78
2022/12/17 19:13:50;;;;;;;42.13;19.63;;;;;;;-4.72;67.74;101669.28;10474420;28;20040;-77
2022/12/17 19:18:55;;;;;;;34.47;14.95;;;;;;;-4.75;67.91;101671.91;10475479;28;20045;-77
2022/12/17 19:24:02;;;;;;;53.22;24.17;;;;;;;-4.89;68.08;101671.88;10474080;28;20060;-77
2022/12/17 19:29:07;;;;;;;47.97;21.10;;;;;;;-4.98;68.20;101669.22;10472792;28;20048;-77
2022/12/17 19:34:12;;;;;;;48.75;21.63;;;;;;;-5.00;68.57;101670.97;10472934;28;20062;-78
2022/12/17 19:39:19;;;;;;;40.83;19.13;;;;;;;-4.98;68.35;101674.47;10473636;28;20581;-75
2022/12/17 19:44:22;;;;;;;49.92;23.15;;;;;;;-5.04;68.49;101675.31;10472393;28;20115;-77
2022/12/17 19:49:25;;;;;;;54.33;22.35;;;;;;;-5.06;68.38;101682.31;10466731;28;20149;-77
2022/12/17 19:54:29;;;;;;;36.78;16.95;;;;;;;-5.11;68.35;101680.53;10466820;28;20048;-77
2022/12/17 19:59:32;;;;;;;52.72;22.98;;;;;;;-5.06;68.31;101691.91;10443407;28;20513;-77
2022/12/17 20:04:35;;;;;;;48.45;19.65;;;;;;;-5.05;68.08;101691.91;10468298;28;20517;-77
2022/12/17 20:09:42;;;;;;;46.65;21.27;;;;;;;-5.10;68.08;101685.78;10471233;28;20059;-75
2022/12/17 20:14:45;;;;;;;59.72;23.38;;;;;;;-5.16;68.09;101684.88;10475726;28;20059;-77
2022/12/17 20:19:52;;;;;;;47.20;20.83;;;;;;;-5.29;68.27;101687.44;10478911;28;20103;-77
2022/12/17 20:25:00;;;;;;;47.65;21.67;;;;;;;-5.27;68.30;101677.81;10494399;28;20059;-74
2022/12/17 20:30:03;;;;;;;51.83;19.70;;;;;;;-5.36;68.34;101698.75;10492189;28;20049;-76
2022/12/17 20:35:07;;;;;;;49.03;20.88;;;;;;;-5.41;68.40;101701.31;10478841;28;20037;-76
2022/12/17 20:40:12;;;;;;;52.40;18.45;;;;;;;-5.43;68.51;101721.41;10498327;28;20053;-77
2022/12/17 20:45:15;;;;;;;47.50;20.20;;;;;;;-5.43;68.37;101718.81;10459433;23;20045;-79
2022/12/17 20:50:18;;;;;;;74.45;29.10;;;;;;;-5.44;68.46;101724.88;10419827;28;20096;-80
2022/12/17 20:55:22;;;;;;;43.28;19.88;;;;;;;-5.49;68.26;101721.34;10419300;28;20041;-79
2022/12/17 21:00:33;;;;;;;48.88;18.88;;;;;;;-5.54;68.28;101722.19;10401133;28;20046;-80
2022/12/17 21:05:36;;;;;;;51.95;24.25;;;;;;;-5.54;68.34;101744.03;10416686;28;20418;-79
2022/12/17 21:10:40;;;;;;;53.50;22.52;;;;;;;-5.58;68.37;101746.63;10396646;28;20096;-79
2022/12/17 21:15:48;;;;;;;54.28;22.05;;;;;;;-5.59;68.29;101745.75;10389640;28;20225;-80
2022/12/17 21:20:56;;;;;;;49.03;21.90;;;;;;;-5.72;68.02;101731.69;10414256;28;20046;-79
2022/12/17 21:26:02;;;;;;;55.42;23.60;;;;;;;-5.70;68.20;101734.31;10429892;28;20033;-79
2022/12/17 21:31:16;;;;;;;55.08;22.92;;;;;;;-5.79;68.30;101742.94;10395818;28;20810;-80
2022/12/17 21:36:22;;;;;;;43.75;20.05;;;;;;;-5.77;68.02;101746.47;10417807;28;20124;-80
2022/12/17 21:41:28;;;;;;;54.55;22.27;;;;;;;-5.85;68.49;101742.91;10420117;28;20041;-79
2022/12/17 21:46:32;;;;;;;58.72;22.38;;;;;;;-5.84;68.40;101762.09;10420797;28;20049;-80
2022/12/17 21:51:35;;;;;;;47.30;19.55;;;;;;;-5.91;68.20;101753.34;10422975;28;20041;-79
2022/12/17 21:56:39;;;;;;;44.25;20.10;;;;;;;-5.95;67.98;101770.75;10408874;28;20049;-78
2022/12/17 22:01:42;;;;;;;42.97;17.83;;;;;;;-6.24;68.56;101762.63;10408444;28;20095;-80
2022/12/17 22:06:45;;;;;;;56.72;22.92;;;;;;;-6.23;69.09;101766.97;10420932;28;20045;-81
2022/12/17 22:17:30;;;;;;;47.13;19.30;;;;;;;-6.05;68.55;101768.03;10439524;28;20075;-81
2022/12/17 22:22:34;;;;;;;43.30;18.10;;;;;;;-6.22;68.64;101773.13;10442930;28;20068;-79
2022/12/17 22:27:38;;;;;;;40.65;17.17;;;;;;;-6.25;68.93;101780.91;10424758;28;20136;-81
2022/12/17 22:33:02;;;;;;;38.55;17.42;;;;;;;-6.22;68.86;101791.41;10424690;28;20565;-81
2022/12/17 22:38:25;;;;;;;49.25;19.95;;;;;;;-6.33;68.85;101768.63;10416029;28;20075;-80
2022/12/17 22:43:49;;;;;;;40.33;17.20;;;;;;;-6.26;68.99;101776.53;10450412;28;20109;-80
2022/12/17 22:49:12;;;;;;;44.60;18.73;;;;;;;-6.21;68.43;101774.84;10432929;28;20049;-80
2022/12/17 22:54:15;;;;;;;42.97;18.45;;;;;;;-6.22;68.24;101771.38;10432622;28;20045;-81
2022/12/17 22:59:20;;;;;;;35.25;16.48;;;;;;;-6.26;68.13;101787.88;10450922;28;20060;-82
2022/12/17 23:04:23;;;;;;;55.67;19.90;;;;;;;-6.40;68.20;101787.72;10448519;28;20038;-81
2022/12/17 23:09:26;;;;;;;38.17;15.25;;;;;;;-6.47;68.39;101778.06;10430735;28;20080;-79
2022/12/17 23:14:30;;;;;;;40.83;17.33;;;;;;;-6.40;68.23;101777.25;10449125;28;20048;-80
2022/12/17 23:19:33;;;;;;;36.20;16.58;;;;;;;-6.40;67.93;101786.84;10430367;28;20083;-79
2022/12/17 23:24:36;;;;;;;42.60;16.42;;;;;;;-6.46;68.21;101790.28;10430849;28;20045;-80
2022/12/17 23:29:40;;;;;;;40.03;17.95;;;;;;;-6.40;68.09;101786.84;10444954;28;20112;-80
2022/12/17 23:34:43;;;;;;;35.80;16.27;;;;;;;-6.39;67.84;101788.59;10444287;28;20048;-80
2022/12/17 23:39:46;;;;;;;37.08;16.70;;;;;;;-6.46;67.74;101789.41;10425659;28;20052;-79
2022/12/17 23:44:51;;;;;;;34.22;15.20;;;;;;;-6.62;67.83;101796.19;10442647;28;20049;-80
2022/12/17 23:49:53;;;;;;;36.15;14.27;;;;;;;-6.66;67.55;101799.59;10421341;28;20065;-81
2022/12/17 23:54:58;;;;;;;37.17;15.60;;;;;;;-6.70;67.79;101800.44;10438972;28;20044;-79
